sensor_id;sensor_type;location;lat;lon;timestamp;temperature;humidity
71128;SHT30;59249;59.736;30.568;2023-04-24T00:00:47;11.43;62.48
71128;SHT30;59249;59.736;30.568;2023-04-24T00:03:16;11.37;62.17
71128;SHT30;59249;59.736;30.568;2023-04-24T00:05:50;11.36;62.70
71128;SHT30;59249;59.736;30.568;2023-04-24T00:08:19;11.48;62.55
71128;SHT30;59249;59.736;30.568;2023-04-24T00:10:48;11.50;62.44
71128;SHT30;59249;59.736;30.568;2023-04-24T00:13:17;11.59;62.30
71128;SHT30;59249;59.736;30.568;2023-04-24T00:15:46;11.63;62.41
71128;SHT30;59249;59.736;30.568;2023-04-24T00:18:15;11.66;62.44
71128;SHT30;59249;59.736;30.568;2023-04-24T00:20:44;11.73;62.11
71128;SHT30;59249;59.736;30.568;2023-04-24T00:23:15;11.79;62.11
71128;SHT30;59249;59.736;30.568;2023-04-24T00:25:44;11.73;62.44
71128;SHT30;59249;59.736;30.568;2023-04-24T00:28:13;11.78;62.13
71128;SHT30;59249;59.736;30.568;2023-04-24T00:30:41;11.79;62.20
71128;SHT30;59249;59.736;30.568;2023-04-24T00:33:10;11.81;62.18
71128;SHT30;59249;59.736;30.568;2023-04-24T00:35:39;11.78;62.47
71128;SHT30;59249;59.736;30.568;2023-04-24T00:38:08;11.78;62.37
71128;SHT30;59249;59.736;30.568;2023-04-24T00:40:38;11.83;62.51
71128;SHT30;59249;59.736;30.568;2023-04-24T00:43:07;11.79;62.71
71128;SHT30;59249;59.736;30.568;2023-04-24T00:45:37;11.76;62.57
71128;SHT30;59249;59.736;30.568;2023-04-24T00:48:06;11.79;62.81
71128;SHT30;59249;59.736;30.568;2023-04-24T00:50:36;11.86;62.74
71128;SHT30;59249;59.736;30.568;2023-04-24T00:53:05;11.83;62.82
71128;SHT30;59249;59.736;30.568;2023-04-24T00:55:34;11.87;62.56
71128;SHT30;59249;59.736;30.568;2023-04-24T00:58:06;11.88;63.00
71128;SHT30;59249;59.736;30.568;2023-04-24T01:00:35;11.85;63.24
71128;SHT30;59249;59.736;30.568;2023-04-24T01:03:05;11.90;62.59
71128;SHT30;59249;59.736;30.568;2023-04-24T01:05:34;11.97;62.74
71128;SHT30;59249;59.736;30.568;2023-04-24T01:08:03;11.95;62.79
71128;SHT30;59249;59.736;30.568;2023-04-24T01:10:33;11.99;62.86
71128;SHT30;59249;59.736;30.568;2023-04-24T01:13:03;11.97;62.75
71128;SHT30;59249;59.736;30.568;2023-04-24T01:15:33;11.99;62.83
71128;SHT30;59249;59.736;30.568;2023-04-24T01:18:02;11.99;62.74
71128;SHT30;59249;59.736;30.568;2023-04-24T01:20:31;11.96;63.24
71128;SHT30;59249;59.736;30.568;2023-04-24T01:23:02;11.97;63.16
71128;SHT30;59249;59.736;30.568;2023-04-24T01:25:31;11.95;63.26
71128;SHT30;59249;59.736;30.568;2023-04-24T01:28:00;11.94;63.40
71128;SHT30;59249;59.736;30.568;2023-04-24T01:30:32;11.89;63.32
71128;SHT30;59249;59.736;30.568;2023-04-24T01:33:01;11.91;63.60
71128;SHT30;59249;59.736;30.568;2023-04-24T01:35:30;11.90;63.45
71128;SHT30;59249;59.736;30.568;2023-04-24T01:37:59;11.87;63.85
71128;SHT30;59249;59.736;30.568;2023-04-24T01:40:30;11.94;63.47
71128;SHT30;59249;59.736;30.568;2023-04-24T01:42:59;11.97;63.70
71128;SHT30;59249;59.736;30.568;2023-04-24T01:45:30;11.99;63.40
71128;SHT30;59249;59.736;30.568;2023-04-24T01:48:00;11.97;63.55
71128;SHT30;59249;59.736;30.568;2023-04-24T01:50:29;11.95;64.05
71128;SHT30;59249;59.736;30.568;2023-04-24T01:52:58;12.01;63.59
71128;SHT30;59249;59.736;30.568;2023-04-24T01:55:28;12.01;63.56
71128;SHT30;59249;59.736;30.568;2023-04-24T01:57:59;11.98;63.67
71128;SHT30;59249;59.736;30.568;2023-04-24T02:00:28;12.06;63.44
71128;SHT30;59249;59.736;30.568;2023-04-24T02:02:57;12.04;63.63
71128;SHT30;59249;59.736;30.568;2023-04-24T02:05:26;12.04;63.70
71128;SHT30;59249;59.736;30.568;2023-04-24T02:07:56;12.06;63.70
71128;SHT30;59249;59.736;30.568;2023-04-24T02:10:24;12.07;63.83
71128;SHT30;59249;59.736;30.568;2023-04-24T02:12:55;12.07;63.97
71128;SHT30;59249;59.736;30.568;2023-04-24T02:15:24;12.13;63.37
71128;SHT30;59249;59.736;30.568;2023-04-24T02:17:53;12.15;63.59
71128;SHT30;59249;59.736;30.568;2023-04-24T02:20:23;12.13;63.59
71128;SHT30;59249;59.736;30.568;2023-04-24T02:22:53;12.14;63.43
71128;SHT30;59249;59.736;30.568;2023-04-24T02:25:22;12.08;64.12
71128;SHT30;59249;59.736;30.568;2023-04-24T02:27:55;12.08;63.86
71128;SHT30;59249;59.736;30.568;2023-04-24T02:30:23;12.07;64.07
71128;SHT30;59249;59.736;30.568;2023-04-24T02:32:52;12.13;63.75
71128;SHT30;59249;59.736;30.568;2023-04-24T02:35:22;12.17;63.49
71128;SHT30;59249;59.736;30.568;2023-04-24T02:37:51;12.19;63.53
71128;SHT30;59249;59.736;30.568;2023-04-24T02:40:19;12.13;63.85
71128;SHT30;59249;59.736;30.568;2023-04-24T02:42:48;12.09;63.94
71128;SHT30;59249;59.736;30.568;2023-04-24T02:45:18;12.07;63.89
71128;SHT30;59249;59.736;30.568;2023-04-24T02:47:47;12.06;63.80
71128;SHT30;59249;59.736;30.568;2023-04-24T02:50:16;12.04;64.09
71128;SHT30;59249;59.736;30.568;2023-04-24T02:52:45;11.95;63.98
71128;SHT30;59249;59.736;30.568;2023-04-24T02:55:14;11.94;64.05
71128;SHT30;59249;59.736;30.568;2023-04-24T02:57:43;11.90;64.16
71128;SHT30;59249;59.736;30.568;2023-04-24T03:00:13;11.88;64.41
71128;SHT30;59249;59.736;30.568;2023-04-24T03:02:43;11.85;64.29
71128;SHT30;59249;59.736;30.568;2023-04-24T03:05:12;11.81;64.44
71128;SHT30;59249;59.736;30.568;2023-04-24T03:07:41;11.79;64.35
71128;SHT30;59249;59.736;30.568;2023-04-24T03:10:10;11.83;64.22
71128;SHT30;59249;59.736;30.568;2023-04-24T03:12:38;11.82;64.16
71128;SHT30;59249;59.736;30.568;2023-04-24T03:15:09;11.92;63.98
71128;SHT30;59249;59.736;30.568;2023-04-24T03:17:37;11.97;64.02
71128;SHT30;59249;59.736;30.568;2023-04-24T03:20:09;12.11;63.80
71128;SHT30;59249;59.736;30.568;2023-04-24T03:22:38;12.22;63.60
71128;SHT30;59249;59.736;30.568;2023-04-24T03:25:09;12.27;63.37
71128;SHT30;59249;59.736;30.568;2023-04-24T03:27:38;12.36;63.16
71128;SHT30;59249;59.736;30.568;2023-04-24T03:30:17;12.43;62.90
71128;SHT30;59249;59.736;30.568;2023-04-24T03:32:51;12.52;62.77
71128;SHT30;59249;59.736;30.568;2023-04-24T03:35:27;12.60;62.69
71128;SHT30;59249;59.736;30.568;2023-04-24T03:37:57;12.73;62.13
71128;SHT30;59249;59.736;30.568;2023-04-24T03:40:44;12.81;61.94
71128;SHT30;59249;59.736;30.568;2023-04-24T03:43:36;12.83;61.91
71128;SHT30;59249;59.736;30.568;2023-04-24T03:46:06;12.92;61.67
71128;SHT30;59249;59.736;30.568;2023-04-24T03:48:41;12.94;61.53
71128;SHT30;59249;59.736;30.568;2023-04-24T03:51:12;12.99;61.22
71128;SHT30;59249;59.736;30.568;2023-04-24T03:53:44;13.03;61.33
71128;SHT30;59249;59.736;30.568;2023-04-24T03:56:17;13.00;61.36
71128;SHT30;59249;59.736;30.568;2023-04-24T03:58:46;13.08;61.23
71128;SHT30;59249;59.736;30.568;2023-04-24T04:01:15;13.06;61.23
71128;SHT30;59249;59.736;30.568;2023-04-24T04:03:54;13.05;61.14
71128;SHT30;59249;59.736;30.568;2023-04-24T04:06:26;13.05;61.25
71128;SHT30;59249;59.736;30.568;2023-04-24T04:08:59;13.18;61.27
71128;SHT30;59249;59.736;30.568;2023-04-24T04:11:29;13.24;61.15
71128;SHT30;59249;59.736;30.568;2023-04-24T04:13:58;13.36;60.94
71128;SHT30;59249;59.736;30.568;2023-04-24T04:16:27;13.46;60.68
71128;SHT30;59249;59.736;30.568;2023-04-24T04:19:02;13.62;60.44
71128;SHT30;59249;59.736;30.568;2023-04-24T04:21:32;13.74;59.89
71128;SHT30;59249;59.736;30.568;2023-04-24T04:24:24;13.81;59.63
71128;SHT30;59249;59.736;30.568;2023-04-24T04:26:54;13.87;59.24
71128;SHT30;59249;59.736;30.568;2023-04-24T04:29:31;13.85;59.16
71128;SHT30;59249;59.736;30.568;2023-04-24T04:32:04;13.83;59.23
71128;SHT30;59249;59.736;30.568;2023-04-24T04:34:33;13.92;59.21
71128;SHT30;59249;59.736;30.568;2023-04-24T04:37:06;13.96;59.31
71128;SHT30;59249;59.736;30.568;2023-04-24T04:39:44;13.99;58.95
71128;SHT30;59249;59.736;30.568;2023-04-24T04:42:22;14.03;59.02
71128;SHT30;59249;59.736;30.568;2023-04-24T04:44:51;14.06;58.64
71128;SHT30;59249;59.736;30.568;2023-04-24T04:47:26;14.14;58.79
71128;SHT30;59249;59.736;30.568;2023-04-24T04:49:57;14.22;58.65
71128;SHT30;59249;59.736;30.568;2023-04-24T04:52:31;14.22;58.47
71128;SHT30;59249;59.736;30.568;2023-04-24T04:55:22;14.22;58.32
71128;SHT30;59249;59.736;30.568;2023-04-24T04:58:13;14.23;58.27
71128;SHT30;59249;59.736;30.568;2023-04-24T05:00:44;14.29;58.24
71128;SHT30;59249;59.736;30.568;2023-04-24T05:03:20;14.40;58.29
71128;SHT30;59249;59.736;30.568;2023-04-24T05:05:57;14.45;57.71
71128;SHT30;59249;59.736;30.568;2023-04-24T05:08:28;14.51;57.99
71128;SHT30;59249;59.736;30.568;2023-04-24T05:10:58;14.57;57.60
71128;SHT30;59249;59.736;30.568;2023-04-24T05:13:29;14.62;57.85
71128;SHT30;59249;59.736;30.568;2023-04-24T05:16:27;14.65;57.54
71128;SHT30;59249;59.736;30.568;2023-04-24T05:18:56;14.80;57.36
71128;SHT30;59249;59.736;30.568;2023-04-24T05:21:30;14.81;56.91
71128;SHT30;59249;59.736;30.568;2023-04-24T05:24:01;14.88;56.75
71128;SHT30;59249;59.736;30.568;2023-04-24T05:27:02;14.98;56.55
71128;SHT30;59249;59.736;30.568;2023-04-24T05:29:38;15.07;56.09
71128;SHT30;59249;59.736;30.568;2023-04-24T05:32:08;15.16;55.59
71128;SHT30;59249;59.736;30.568;2023-04-24T05:34:37;15.23;55.32
71128;SHT30;59249;59.736;30.568;2023-04-24T05:37:06;15.33;55.40
71128;SHT30;59249;59.736;30.568;2023-04-24T05:39:38;15.38;55.20
71128;SHT30;59249;59.736;30.568;2023-04-24T05:42:08;15.43;54.88
71128;SHT30;59249;59.736;30.568;2023-04-24T05:44:37;15.51;54.78
71128;SHT30;59249;59.736;30.568;2023-04-24T05:47:06;15.62;54.83
71128;SHT30;59249;59.736;30.568;2023-04-24T05:49:35;15.73;54.89
71128;SHT30;59249;59.736;30.568;2023-04-24T05:52:04;15.84;54.80
71128;SHT30;59249;59.736;30.568;2023-04-24T05:54:33;15.93;54.37
71128;SHT30;59249;59.736;30.568;2023-04-24T05:57:05;16.05;54.07
71128;SHT30;59249;59.736;30.568;2023-04-24T05:59:51;16.12;53.58
71128;SHT30;59249;59.736;30.568;2023-04-24T06:02:21;16.30;53.29
71128;SHT30;59249;59.736;30.568;2023-04-24T06:04:51;16.37;53.19
71128;SHT30;59249;59.736;30.568;2023-04-24T06:07:19;16.40;52.58
71128;SHT30;59249;59.736;30.568;2023-04-24T06:09:49;16.53;52.70
71128;SHT30;59249;59.736;30.568;2023-04-24T06:12:19;16.61;52.57
71128;SHT30;59249;59.736;30.568;2023-04-24T06:14:56;16.74;52.20
71128;SHT30;59249;59.736;30.568;2023-04-24T06:17:48;16.92;52.18
71128;SHT30;59249;59.736;30.568;2023-04-24T06:20:21;16.95;52.27
71128;SHT30;59249;59.736;30.568;2023-04-24T06:22:49;17.03;51.64
71128;SHT30;59249;59.736;30.568;2023-04-24T06:25:18;17.13;51.15
71128;SHT30;59249;59.736;30.568;2023-04-24T06:27:49;17.26;51.28
71128;SHT30;59249;59.736;30.568;2023-04-24T06:30:17;17.40;51.17
71128;SHT30;59249;59.736;30.568;2023-04-24T06:32:46;17.49;51.01
71128;SHT30;59249;59.736;30.568;2023-04-24T06:35:15;17.58;50.73
71128;SHT30;59249;59.736;30.568;2023-04-24T06:37:44;17.65;50.68
71128;SHT30;59249;59.736;30.568;2023-04-24T06:40:13;17.79;50.48
71128;SHT30;59249;59.736;30.568;2023-04-24T06:42:42;17.81;49.58
71128;SHT30;59249;59.736;30.568;2023-04-24T06:45:12;17.86;49.13
71128;SHT30;59249;59.736;30.568;2023-04-24T06:47:41;17.96;48.78
71128;SHT30;59249;59.736;30.568;2023-04-24T06:50:10;17.99;49.31
71128;SHT30;59249;59.736;30.568;2023-04-24T06:52:40;18.12;48.84
71128;SHT30;59249;59.736;30.568;2023-04-24T06:55:09;18.20;48.70
71128;SHT30;59249;59.736;30.568;2023-04-24T06:57:39;18.30;48.61
71128;SHT30;59249;59.736;30.568;2023-04-24T07:00:09;18.38;48.90
71128;SHT30;59249;59.736;30.568;2023-04-24T07:02:40;18.48;48.39
71128;SHT30;59249;59.736;30.568;2023-04-24T07:05:09;18.60;47.68
71128;SHT30;59249;59.736;30.568;2023-04-24T07:07:39;18.70;47.87
71128;SHT30;59249;59.736;30.568;2023-04-24T07:10:08;18.73;47.09
71128;SHT30;59249;59.736;30.568;2023-04-24T07:12:37;18.83;47.25
71128;SHT30;59249;59.736;30.568;2023-04-24T07:15:08;18.87;46.72
71128;SHT30;59249;59.736;30.568;2023-04-24T07:17:37;18.96;46.45
71128;SHT30;59249;59.736;30.568;2023-04-24T07:20:12;19.05;46.45
71128;SHT30;59249;59.736;30.568;2023-04-24T07:22:41;19.13;46.11
71128;SHT30;59249;59.736;30.568;2023-04-24T07:25:10;19.17;46.08
71128;SHT30;59249;59.736;30.568;2023-04-24T07:27:39;19.31;46.02
71128;SHT30;59249;59.736;30.568;2023-04-24T07:30:09;19.38;45.34
71128;SHT30;59249;59.736;30.568;2023-04-24T07:32:38;19.48;44.67
71128;SHT30;59249;59.736;30.568;2023-04-24T07:35:08;19.51;44.55
71128;SHT30;59249;59.736;30.568;2023-04-24T07:37:38;19.61;44.59
71128;SHT30;59249;59.736;30.568;2023-04-24T07:40:08;19.70;44.57
71128;SHT30;59249;59.736;30.568;2023-04-24T07:42:37;19.78;44.47
71128;SHT30;59249;59.736;30.568;2023-04-24T07:45:07;19.82;44.10
71128;SHT30;59249;59.736;30.568;2023-04-24T07:47:36;19.91;44.16
71128;SHT30;59249;59.736;30.568;2023-04-24T07:50:06;19.99;43.70
71128;SHT30;59249;59.736;30.568;2023-04-24T07:52:35;20.07;43.44
71128;SHT30;59249;59.736;30.568;2023-04-24T07:55:06;20.11;43.06
71128;SHT30;59249;59.736;30.568;2023-04-24T07:57:36;20.17;42.45
71128;SHT30;59249;59.736;30.568;2023-04-24T08:00:06;20.24;43.02
71128;SHT30;59249;59.736;30.568;2023-04-24T08:02:39;20.23;42.16
71128;SHT30;59249;59.736;30.568;2023-04-24T08:05:08;20.39;42.53
71128;SHT30;59249;59.736;30.568;2023-04-24T08:07:38;20.43;41.93
71128;SHT30;59249;59.736;30.568;2023-04-24T08:10:10;20.45;41.66
71128;SHT30;59249;59.736;30.568;2023-04-24T08:12:39;20.52;41.61
71128;SHT30;59249;59.736;30.568;2023-04-24T08:15:09;20.55;41.93
71128;SHT30;59249;59.736;30.568;2023-04-24T08:17:38;20.64;41.21
71128;SHT30;59249;59.736;30.568;2023-04-24T08:20:09;20.62;41.35
71128;SHT30;59249;59.736;30.568;2023-04-24T08:22:44;20.69;40.96
71128;SHT30;59249;59.736;30.568;2023-04-24T08:25:16;20.72;40.66
71128;SHT30;59249;59.736;30.568;2023-04-24T08:27:46;20.89;40.75
71128;SHT30;59249;59.736;30.568;2023-04-24T08:30:18;20.94;40.31
71128;SHT30;59249;59.736;30.568;2023-04-24T08:32:48;20.99;39.87
71128;SHT30;59249;59.736;30.568;2023-04-24T08:35:18;20.91;39.07
71128;SHT30;59249;59.736;30.568;2023-04-24T08:37:47;20.84;38.90
71128;SHT30;59249;59.736;30.568;2023-04-24T08:40:17;20.78;39.13
71128;SHT30;59249;59.736;30.568;2023-04-24T08:42:46;20.68;39.33
71128;SHT30;59249;59.736;30.568;2023-04-24T08:45:17;20.66;39.40
71128;SHT30;59249;59.736;30.568;2023-04-24T08:47:46;20.75;39.10
71128;SHT30;59249;59.736;30.568;2023-04-24T08:50:17;20.75;38.76
71128;SHT30;59249;59.736;30.568;2023-04-24T08:52:48;20.76;39.03
71128;SHT30;59249;59.736;30.568;2023-04-24T08:55:20;20.80;37.93
71128;SHT30;59249;59.736;30.568;2023-04-24T08:57:52;20.92;37.34
71128;SHT30;59249;59.736;30.568;2023-04-24T09:00:22;20.99;37.60
71128;SHT30;59249;59.736;30.568;2023-04-24T09:02:53;20.94;37.49
71128;SHT30;59249;59.736;30.568;2023-04-24T09:05:23;21.03;37.77
71128;SHT30;59249;59.736;30.568;2023-04-24T09:07:59;21.15;37.35
71128;SHT30;59249;59.736;30.568;2023-04-24T09:10:31;21.20;37.40
71128;SHT30;59249;59.736;30.568;2023-04-24T09:13:03;21.28;37.10
71128;SHT30;59249;59.736;30.568;2023-04-24T09:15:31;21.32;37.41
71128;SHT30;59249;59.736;30.568;2023-04-24T09:18:01;21.36;36.90
71128;SHT30;59249;59.736;30.568;2023-04-24T09:20:30;21.33;36.88
71128;SHT30;59249;59.736;30.568;2023-04-24T09:22:59;21.32;36.87
71128;SHT30;59249;59.736;30.568;2023-04-24T09:25:33;21.31;36.84
71128;SHT30;59249;59.736;30.568;2023-04-24T09:28:04;21.34;37.32
71128;SHT30;59249;59.736;30.568;2023-04-24T09:30:34;21.43;37.13
71128;SHT30;59249;59.736;30.568;2023-04-24T09:33:14;21.45;37.12
71128;SHT30;59249;59.736;30.568;2023-04-24T09:35:51;21.50;37.22
71128;SHT30;59249;59.736;30.568;2023-04-24T09:38:30;21.51;37.18
71128;SHT30;59249;59.736;30.568;2023-04-24T09:41:02;21.48;37.35
71128;SHT30;59249;59.736;30.568;2023-04-24T09:43:33;21.61;37.52
71128;SHT30;59249;59.736;30.568;2023-04-24T09:46:06;21.64;37.55
71128;SHT30;59249;59.736;30.568;2023-04-24T09:48:37;21.65;37.46
71128;SHT30;59249;59.736;30.568;2023-04-24T09:51:07;21.78;37.54
71128;SHT30;59249;59.736;30.568;2023-04-24T09:53:38;21.78;37.13
71128;SHT30;59249;59.736;30.568;2023-04-24T09:56:13;21.77;37.15
71128;SHT30;59249;59.736;30.568;2023-04-24T09:58:42;21.82;37.47
71128;SHT30;59249;59.736;30.568;2023-04-24T10:01:11;21.89;37.18
71128;SHT30;59249;59.736;30.568;2023-04-24T10:03:42;21.94;36.95
71128;SHT30;59249;59.736;30.568;2023-04-24T10:06:13;22.03;36.78
71128;SHT30;59249;59.736;30.568;2023-04-24T10:08:43;22.10;36.33
71128;SHT30;59249;59.736;30.568;2023-04-24T10:11:16;22.05;35.96
71128;SHT30;59249;59.736;30.568;2023-04-24T10:13:45;22.08;35.93
71128;SHT30;59249;59.736;30.568;2023-04-24T10:16:15;22.09;35.74
71128;SHT30;59249;59.736;30.568;2023-04-24T10:18:44;22.18;36.12
71128;SHT30;59249;59.736;30.568;2023-04-24T10:21:14;22.29;36.39
71128;SHT30;59249;59.736;30.568;2023-04-24T10:23:44;22.31;36.10
71128;SHT30;59249;59.736;30.568;2023-04-24T10:26:16;22.39;35.91
71128;SHT30;59249;59.736;30.568;2023-04-24T10:28:47;22.42;35.81
71128;SHT30;59249;59.736;30.568;2023-04-24T10:31:17;22.45;35.77
71128;SHT30;59249;59.736;30.568;2023-04-24T10:33:47;22.43;35.53
71128;SHT30;59249;59.736;30.568;2023-04-24T10:36:18;22.45;35.60
71128;SHT30;59249;59.736;30.568;2023-04-24T10:38:53;22.60;35.69
71128;SHT30;59249;59.736;30.568;2023-04-24T10:41:26;22.59;35.11
71128;SHT30;59249;59.736;30.568;2023-04-24T10:44:11;22.64;35.34
71128;SHT30;59249;59.736;30.568;2023-04-24T10:46:46;22.77;35.54
71128;SHT30;59249;59.736;30.568;2023-04-24T10:49:29;22.85;35.01
71128;SHT30;59249;59.736;30.568;2023-04-24T10:52:01;22.99;35.19
71128;SHT30;59249;59.736;30.568;2023-04-24T10:54:36;22.96;34.81
71128;SHT30;59249;59.736;30.568;2023-04-24T10:57:29;23.21;34.55
71128;SHT30;59249;59.736;30.568;2023-04-24T11:00:20;23.29;33.92
71128;SHT30;59249;59.736;30.568;2023-04-24T11:02:53;23.35;34.44
71128;SHT30;59249;59.736;30.568;2023-04-24T11:05:51;23.31;34.15
71128;SHT30;59249;59.736;30.568;2023-04-24T11:08:28;23.67;34.48
71128;SHT30;59249;59.736;30.568;2023-04-24T11:11:07;23.77;34.22
71128;SHT30;59249;59.736;30.568;2023-04-24T11:14:02;24.05;34.22
71128;SHT30;59249;59.736;30.568;2023-04-24T11:16:38;23.96;33.91
71128;SHT30;59249;59.736;30.568;2023-04-24T11:19:09;23.84;33.88
71128;SHT30;59249;59.736;30.568;2023-04-24T11:21:45;23.85;33.99
71128;SHT30;59249;59.736;30.568;2023-04-24T11:24:30;23.90;33.94
71128;SHT30;59249;59.736;30.568;2023-04-24T11:27:06;23.85;34.19
71128;SHT30;59249;59.736;30.568;2023-04-24T11:29:47;23.80;34.14
71128;SHT30;59249;59.736;30.568;2023-04-24T11:32:25;23.88;33.94
71128;SHT30;59249;59.736;30.568;2023-04-24T11:34:57;23.87;33.98
71128;SHT30;59249;59.736;30.568;2023-04-24T11:37:35;23.82;34.13
71128;SHT30;59249;59.736;30.568;2023-04-24T11:40:07;23.78;34.16
71128;SHT30;59249;59.736;30.568;2023-04-24T11:42:37;23.80;34.07
71128;SHT30;59249;59.736;30.568;2023-04-24T11:45:12;23.92;34.01
71128;SHT30;59249;59.736;30.568;2023-04-24T11:47:42;24.04;34.06
71128;SHT30;59249;59.736;30.568;2023-04-24T11:50:13;24.12;33.94
71128;SHT30;59249;59.736;30.568;2023-04-24T11:52:45;23.95;33.94
71128;SHT30;59249;59.736;30.568;2023-04-24T11:55:26;23.89;34.08
71128;SHT30;59249;59.736;30.568;2023-04-24T11:57:58;23.90;34.21
71128;SHT30;59249;59.736;30.568;2023-04-24T12:00:29;24.02;33.92
71128;SHT30;59249;59.736;30.568;2023-04-24T12:03:07;23.97;33.50
71128;SHT30;59249;59.736;30.568;2023-04-24T12:05:37;24.05;33.44
71128;SHT30;59249;59.736;30.568;2023-04-24T12:08:07;24.08;33.38
71128;SHT30;59249;59.736;30.568;2023-04-24T12:10:36;24.17;33.44
71128;SHT30;59249;59.736;30.568;2023-04-24T12:13:09;24.17;33.25
71128;SHT30;59249;59.736;30.568;2023-04-24T12:15:40;24.32;33.38
71128;SHT30;59249;59.736;30.568;2023-04-24T12:18:12;24.34;33.28
71128;SHT30;59249;59.736;30.568;2023-04-24T12:20:41;24.34;33.43
71128;SHT30;59249;59.736;30.568;2023-04-24T12:23:11;24.39;33.34
71128;SHT30;59249;59.736;30.568;2023-04-24T12:25:40;24.47;33.22
71128;SHT30;59249;59.736;30.568;2023-04-24T12:28:11;24.55;33.44
71128;SHT30;59249;59.736;30.568;2023-04-24T12:30:42;24.43;32.91
71128;SHT30;59249;59.736;30.568;2023-04-24T12:33:12;24.28;32.96
71128;SHT30;59249;59.736;30.568;2023-04-24T12:35:41;24.26;32.99
71128;SHT30;59249;59.736;30.568;2023-04-24T12:38:13;24.44;32.92
71128;SHT30;59249;59.736;30.568;2023-04-24T12:40:43;24.43;32.67
71128;SHT30;59249;59.736;30.568;2023-04-24T12:43:16;24.44;32.67
71128;SHT30;59249;59.736;30.568;2023-04-24T12:45:47;24.52;32.86
71128;SHT30;59249;59.736;30.568;2023-04-24T12:48:16;24.56;32.89
71128;SHT30;59249;59.736;30.568;2023-04-24T12:50:45;24.41;32.98
71128;SHT30;59249;59.736;30.568;2023-04-24T12:53:15;24.29;32.83
71128;SHT30;59249;59.736;30.568;2023-04-24T12:55:44;24.19;33.09
71128;SHT30;59249;59.736;30.568;2023-04-24T12:58:14;23.99;32.80
71128;SHT30;59249;59.736;30.568;2023-04-24T13:00:43;23.88;32.70
71128;SHT30;59249;59.736;30.568;2023-04-24T13:03:13;23.89;32.95
71128;SHT30;59249;59.736;30.568;2023-04-24T13:05:43;23.81;32.97
71128;SHT30;59249;59.736;30.568;2023-04-24T13:08:12;23.77;33.15
71128;SHT30;59249;59.736;30.568;2023-04-24T13:10:42;23.74;33.15
71128;SHT30;59249;59.736;30.568;2023-04-24T13:13:11;23.70;33.38
71128;SHT30;59249;59.736;30.568;2023-04-24T13:15:40;23.65;33.32
71128;SHT30;59249;59.736;30.568;2023-04-24T13:18:09;23.59;33.39
71128;SHT30;59249;59.736;30.568;2023-04-24T13:20:38;23.59;33.34
71128;SHT30;59249;59.736;30.568;2023-04-24T13:23:08;23.64;33.43
71128;SHT30;59249;59.736;30.568;2023-04-24T13:25:37;23.66;33.15
71128;SHT30;59249;59.736;30.568;2023-04-24T13:28:07;23.72;33.81
71128;SHT30;59249;59.736;30.568;2023-04-24T13:30:37;23.72;33.63
71128;SHT30;59249;59.736;30.568;2023-04-24T13:33:06;23.72;33.74
71128;SHT30;59249;59.736;30.568;2023-04-24T13:35:35;23.65;33.74
71128;SHT30;59249;59.736;30.568;2023-04-24T13:38:04;23.47;34.03
71128;SHT30;59249;59.736;30.568;2023-04-24T13:40:36;23.36;34.88
71128;SHT30;59249;59.736;30.568;2023-04-24T13:43:06;22.97;36.75
71128;SHT30;59249;59.736;30.568;2023-04-24T13:45:35;22.33;37.59
71128;SHT30;59249;59.736;30.568;2023-04-24T13:48:05;21.52;39.14
71128;SHT30;59249;59.736;30.568;2023-04-24T13:50:34;21.16;40.20
71128;SHT30;59249;59.736;30.568;2023-04-24T13:53:02;20.97;40.31
71128;SHT30;59249;59.736;30.568;2023-04-24T13:55:31;20.43;42.27
71128;SHT30;59249;59.736;30.568;2023-04-24T13:58:00;20.19;42.60
71128;SHT30;59249;59.736;30.568;2023-04-24T14:00:31;20.05;43.12
71128;SHT30;59249;59.736;30.568;2023-04-24T14:03:00;19.75;43.43
71128;SHT30;59249;59.736;30.568;2023-04-24T14:05:29;19.40;44.32
71128;SHT30;59249;59.736;30.568;2023-04-24T14:07:58;18.74;45.44
71128;SHT30;59249;59.736;30.568;2023-04-24T14:10:27;18.42;46.17
71128;SHT30;59249;59.736;30.568;2023-04-24T14:12:56;18.23;46.76
71128;SHT30;59249;59.736;30.568;2023-04-24T14:15:25;18.09;47.45
71128;SHT30;59249;59.736;30.568;2023-04-24T14:17:55;18.11;47.86
71128;SHT30;59249;59.736;30.568;2023-04-24T14:20:24;17.57;50.02
71128;SHT30;59249;59.736;30.568;2023-04-24T14:22:53;17.32;50.76
71128;SHT30;59249;59.736;30.568;2023-04-24T14:25:22;17.26;51.11
71128;SHT30;59249;59.736;30.568;2023-04-24T14:27:51;17.02;51.41
71128;SHT30;59249;59.736;30.568;2023-04-24T14:30:19;16.91;52.28
71128;SHT30;59249;59.736;30.568;2023-04-24T14:32:48;16.72;52.42
71128;SHT30;59249;59.736;30.568;2023-04-24T14:35:19;16.37;53.29
71128;SHT30;59249;59.736;30.568;2023-04-24T14:37:48;16.16;54.33
71128;SHT30;59249;59.736;30.568;2023-04-24T14:40:17;16.36;53.99
71128;SHT30;59249;59.736;30.568;2023-04-24T14:43:06;16.28;54.38
71128;SHT30;59249;59.736;30.568;2023-04-24T14:45:34;16.35;54.33
71128;SHT30;59249;59.736;30.568;2023-04-24T14:48:05;16.34;54.53
71128;SHT30;59249;59.736;30.568;2023-04-24T14:50:35;16.03;55.73
71128;SHT30;59249;59.736;30.568;2023-04-24T14:53:04;16.00;55.79
71128;SHT30;59249;59.736;30.568;2023-04-24T14:55:33;15.93;56.28
71128;SHT30;59249;59.736;30.568;2023-04-24T14:58:04;15.85;56.69
71128;SHT30;59249;59.736;30.568;2023-04-24T15:00:32;15.73;57.61
71128;SHT30;59249;59.736;30.568;2023-04-24T15:03:01;15.66;57.68
71128;SHT30;59249;59.736;30.568;2023-04-24T15:05:30;15.71;58.17
71128;SHT30;59249;59.736;30.568;2023-04-24T15:08:01;15.51;58.86
71128;SHT30;59249;59.736;30.568;2023-04-24T15:10:30;15.70;58.86
71128;SHT30;59249;59.736;30.568;2023-04-24T15:12:58;15.39;60.79
71128;SHT30;59249;59.736;30.568;2023-04-24T15:15:27;15.25;61.35
71128;SHT30;59249;59.736;30.568;2023-04-24T15:17:56;15.17;61.83
71128;SHT30;59249;59.736;30.568;2023-04-24T15:20:25;15.30;61.54
71128;SHT30;59249;59.736;30.568;2023-04-24T15:22:54;15.21;61.90
71128;SHT30;59249;59.736;30.568;2023-04-24T15:25:24;15.10;62.06
71128;SHT30;59249;59.736;30.568;2023-04-24T15:27:53;15.00;62.52
71128;SHT30;59249;59.736;30.568;2023-04-24T15:30:22;15.05;62.13
71128;SHT30;59249;59.736;30.568;2023-04-24T15:32:51;15.04;62.39
71128;SHT30;59249;59.736;30.568;2023-04-24T15:35:19;15.05;62.48
71128;SHT30;59249;59.736;30.568;2023-04-24T15:37:48;15.15;61.83
71128;SHT30;59249;59.736;30.568;2023-04-24T15:40:17;15.17;61.90